Time;durP1;ratioP1;P1;durP2;ratioP2;P2;SDS_P1;SDS_P2;PMS_P1;PMS_P2;Temp;Humidity;BMP_temperature;BMP_pressure;BME280_temperature;BME280_humidity;BME280_pressure;Samples;Min_cycle;Max_cycle;Signal;HPM_P1;HPM_P2
2021/06/15 00:02:51;;;;;;;4.90;1.90;;;;;;;;;;5032976;28;20033;-67
2021/06/15 00:05:59;;;;;;;3.60;1.77;;;;;;;;;;5033143;28;20057;-66
2021/06/15 00:09:04;;;;;;;3.35;1.58;;;;;;;;;;5033340;28;20038;-66
2021/06/15 00:12:09;;;;;;;10.45;2.17;;;;;;;;;;5032837;28;20049;-66
2021/06/15 00:15:15;;;;;;;5.28;1.30;;;;;;;;;;5033140;28;20037;-66
2021/06/15 00:18:20;;;;;;;4.35;2.17;;;;;;;;;;5032997;28;20049;-66
2021/06/15 00:21:24;;;;;;;4.95;2.03;;;;;;;;;;5033016;28;20037;-67
2021/06/15 00:24:31;;;;;;;9.82;1.83;;;;;;;;;;5032937;28;20049;-66
2021/06/15 00:27:36;;;;;;;4.45;2.05;;;;;;;;;;5032380;28;20033;-67
2021/06/15 00:30:40;;;;;;;5.25;2.08;;;;;;;;;;5032417;28;20033;-66
2021/06/15 00:33:44;;;;;;;3.63;1.67;;;;;;;;;;5033215;28;20045;-67
2021/06/15 00:36:49;;;;;;;4.07;2.05;;;;;;;;;;5032303;28;20049;-67
2021/06/15 00:39:53;;;;;;;2.78;1.83;;;;;;;;;;5032432;28;20497;-67
2021/06/15 00:42:57;;;;;;;3.58;2.10;;;;;;;;;;5032523;28;20480;-66
2021/06/15 00:46:02;;;;;;;4.55;1.92;;;;;;;;;;5032049;28;20034;-66
2021/06/15 00:49:06;;;;;;;4.43;1.55;;;;;;;;;;5031994;28;20598;-66
2021/06/15 00:52:11;;;;;;;6.63;1.70;;;;;;;;;;5019328;28;20037;-66
2021/06/15 00:55:16;;;;;;;5.72;1.92;;;;;;;;;;5019880;28;20374;-66
2021/06/15 00:58:21;;;;;;;5.30;1.80;;;;;;;;;;5019678;28;20567;-67
2021/06/15 01:01:26;;;;;;;3.20;1.83;;;;;;;;;;5019893;28;20042;-66
2021/06/15 01:04:30;;;;;;;4.25;1.63;;;;;;;;;;5019457;28;20041;-66
2021/06/15 01:07:56;;;;;;;3.53;1.75;;;;;;;;;;5032050;28;20033;-66
2021/06/15 01:11:17;;;;;;;6.75;1.70;;;;;;;;;;5019416;28;20038;-66
2021/06/15 01:14:44;;;;;;;7.80;1.95;;;;;;;;;;5031575;28;20042;-66
2021/06/15 01:17:52;;;;;;;3.60;1.95;;;;;;;;;;5019273;28;20034;-66
2021/06/15 01:21:07;;;;;;;7.95;1.70;;;;;;;;;;5019195;28;20041;-66
2021/06/15 01:24:20;;;;;;;4.63;2.03;;;;;;;;;;5019252;28;20026;-67
2021/06/15 01:27:43;;;;;;;7.28;2.17;;;;;;;;;;5041591;28;20037;-67
2021/06/15 01:30:55;;;;;;;8.00;2.22;;;;;;;;;;5031282;28;20041;-66
2021/06/15 01:34:01;;;;;;;7.80;2.15;;;;;;;;;;5019113;28;20377;-67
2021/06/15 01:37:10;;;;;;;5.55;1.98;;;;;;;;;;5031190;28;20631;-66
2021/06/15 01:40:21;;;;;;;4.07;2.22;;;;;;;;;;5018795;28;20037;-67
2021/06/15 01:43:44;;;;;;;5.25;1.88;;;;;;;;;;5030985;28;20041;-67
2021/06/15 01:46:58;;;;;;;4.47;2.40;;;;;;;;;;5018981;28;20370;-67
2021/06/15 01:50:06;;;;;;;7.18;1.85;;;;;;;;;;5018919;28;20484;-66
2021/06/15 01:53:33;;;;;;;4.40;2.10;;;;;;;;;;5002120;28;20038;-66
2021/06/15 01:56:49;;;;;;;4.07;2.30;;;;;;;;;;4941725;28;20035;-66
2021/06/15 02:00:10;;;;;;;5.70;2.10;;;;;;;;;;4886141;29;20045;-66
2021/06/15 02:03:09;;;;;;;11.02;2.15;;;;;;;;;;4874655;29;20033;-66
2021/06/15 02:06:21;;;;;;;6.50;1.98;;;;;;;;;;4874955;29;20060;-66
2021/06/15 02:09:26;;;;;;;2.95;2.13;;;;;;;;;;4874862;29;20041;-66
2021/06/15 02:12:52;;;;;;;11.50;2.47;;;;;;;;;;4874224;29;20041;-67
2021/06/15 02:16:36;;;;;;;8.05;1.92;;;;;;;;;;4874893;29;20041;-66
2021/06/15 02:20:01;;;;;;;6.43;2.00;;;;;;;;;;4874405;29;20048;-65
2021/06/15 02:23:08;;;;;;;4.75;1.90;;;;;;;;;;4876952;29;20033;-65
2021/06/15 02:26:15;;;;;;;6.07;2.60;;;;;;;;;;4893248;29;20438;-65
2021/06/15 02:29:28;;;;;;;5.13;1.77;;;;;;;;;;4904071;29;20036;-65
2021/06/15 02:32:34;;;;;;;10.75;2.10;;;;;;;;;;4915754;29;20044;-66
2021/06/15 02:35:44;;;;;;;6.90;1.88;;;;;;;;;;4940146;28;20044;-65
2021/06/15 02:38:52;;;;;;;7.82;2.20;;;;;;;;;;5017890;28;20410;-65
2021/06/15 02:41:57;;;;;;;5.03;2.65;;;;;;;;;;5030245;28;20042;-65
2021/06/15 02:45:04;;;;;;;5.05;2.03;;;;;;;;;;5030431;28;20041;-65
2021/06/15 02:48:09;;;;;;;8.00;1.98;;;;;;;;;;5018314;28;20037;-65
2021/06/15 02:51:26;;;;;;;5.38;2.45;;;;;;;;;;5018114;28;20037;-65
2021/06/15 02:54:32;;;;;;;8.65;2.90;;;;;;;;;;5030499;28;20037;-65
2021/06/15 02:57:38;;;;;;;14.95;2.60;;;;;;;;;;5017939;28;20041;-65
2021/06/15 03:00:42;;;;;;;5.78;2.50;;;;;;;;;;5017817;28;20133;-66
2021/06/15 03:03:47;;;;;;;6.25;2.70;;;;;;;;;;5017868;28;20136;-65
2021/06/15 03:06:52;;;;;;;7.25;2.47;;;;;;;;;;5030333;28;20037;-65
2021/06/15 03:10:01;;;;;;;7.07;3.05;;;;;;;;;;5017687;28;20038;-65
2021/06/15 03:13:17;;;;;;;7.37;3.97;;;;;;;;;;5040558;28;20068;-65
2021/06/15 03:16:27;;;;;;;6.72;3.80;;;;;;;;;;5033524;28;20272;-65
2021/06/15 03:19:41;;;;;;;6.70;3.25;;;;;;;;;;5021352;28;20191;-65
2021/06/15 03:22:57;;;;;;;10.98;4.75;;;;;;;;;;5021110;28;20037;-66
2021/06/15 03:26:04;;;;;;;9.43;3.38;;;;;;;;;;5033846;28;20400;-65
2021/06/15 03:29:11;;;;;;;7.10;2.90;;;;;;;;;;5021389;28;20029;-65
2021/06/15 03:32:17;;;;;;;4.30;2.20;;;;;;;;;;5021114;28;20448;-65
2021/06/15 03:35:24;;;;;;;8.60;2.50;;;;;;;;;;5021447;28;20034;-66
2021/06/15 03:38:30;;;;;;;10.27;2.10;;;;;;;;;;5021298;28;20230;-66
2021/06/15 03:41:36;;;;;;;6.28;2.03;;;;;;;;;;5038864;28;20048;-66
2021/06/15 03:44:40;;;;;;;5.35;2.10;;;;;;;;;;5033251;28;20037;-66
2021/06/15 03:47:48;;;;;;;9.05;2.42;;;;;;;;;;5033203;28;20038;-66
2021/06/15 03:50:53;;;;;;;6.53;2.20;;;;;;;;;;5033345;28;20397;-65
2021/06/15 03:54:10;;;;;;;7.47;2.10;;;;;;;;;;5033302;28;20053;-66
2021/06/15 03:57:15;;;;;;;14.90;2.45;;;;;;;;;;5032997;28;20481;-65
2021/06/15 04:00:21;;;;;;;7.72;2.10;;;;;;;;;;5032840;28;20054;-65
2021/06/15 04:03:25;;;;;;;7.93;2.42;;;;;;;;;;5032599;28;20037;-65
2021/06/15 04:06:30;;;;;;;5.38;2.20;;;;;;;;;;5032989;28;20037;-66
2021/06/15 04:09:35;;;;;;;5.80;2.20;;;;;;;;;;5033123;28;20037;-66
2021/06/15 04:12:41;;;;;;;5.63;2.03;;;;;;;;;;5032452;28;20386;-66
2021/06/15 04:15:47;;;;;;;6.05;2.15;;;;;;;;;;5032708;28;20041;-66
2021/06/15 04:18:54;;;;;;;4.47;1.80;;;;;;;;;;5032219;28;20049;-65
2021/06/15 04:22:00;;;;;;;5.65;2.10;;;;;;;;;;5032585;28;20049;-66
2021/06/15 04:25:06;;;;;;;12.10;2.03;;;;;;;;;;5032408;28;20045;-66
2021/06/15 04:28:11;;;;;;;3.47;2.00;;;;;;;;;;5019554;28;20025;-66
2021/06/15 04:31:17;;;;;;;5.47;1.80;;;;;;;;;;5032605;28;20041;-66
2021/06/15 04:34:25;;;;;;;6.78;1.90;;;;;;;;;;5032185;28;20378;-66
2021/06/15 04:37:30;;;;;;;7.65;1.80;;;;;;;;;;5032370;28;20045;-66
2021/06/15 04:40:42;;;;;;;7.97;1.92;;;;;;;;;;5032193;28;20382;-65
2021/06/15 04:43:56;;;;;;;4.22;1.95;;;;;;;;;;5032017;28;20029;-65
2021/06/15 04:47:14;;;;;;;8.57;1.60;;;;;;;;;;5032255;28;20034;-67
2021/06/15 04:50:19;;;;;;;9.13;2.08;;;;;;;;;;5032167;28;20048;-66
2021/06/15 04:53:24;;;;;;;6.88;2.47;;;;;;;;;;5032269;28;20367;-66
2021/06/15 04:56:29;;;;;;;5.57;1.85;;;;;;;;;;5031898;28;20029;-67
2021/06/15 04:59:35;;;;;;;9.65;1.70;;;;;;;;;;5031805;28;20374;-65
2021/06/15 05:02:40;;;;;;;7.88;2.05;;;;;;;;;;5042271;28;20037;-67
2021/06/15 05:05:45;;;;;;;5.13;2.15;;;;;;;;;;5031921;28;20513;-67
2021/06/15 05:08:52;;;;;;;7.07;1.70;;;;;;;;;;5031635;28;20033;-67
2021/06/15 05:11:57;;;;;;;7.43;1.55;;;;;;;;;;5031153;28;20045;-67
2021/06/15 05:15:05;;;;;;;6.63;1.63;;;;;;;;;;5031541;28;20041;-65
2021/06/15 05:18:10;;;;;;;5.50;1.85;;;;;;;;;;5031631;28;20045;-65
2021/06/15 05:21:16;;;;;;;7.97;2.00;;;;;;;;;;5031475;28;20567;-63
2021/06/15 05:24:33;;;;;;;3.90;1.58;;;;;;;;;;5031375;28;20033;-62
2021/06/15 05:27:37;;;;;;;8.25;2.00;;;;;;;;;;5031565;28;20053;-63
2021/06/15 05:30:42;;;;;;;6.65;2.10;;;;;;;;;;5031339;28;20041;-63
2021/06/15 05:33:46;;;;;;;4.18;1.75;;;;;;;;;;5031350;28;20046;-64
2021/06/15 05:36:50;;;;;;;6.40;1.70;;;;;;;;;;5031401;28;20037;-64
2021/06/15 05:39:58;;;;;;;7.43;1.98;;;;;;;;;;5030604;28;20049;-64
2021/06/15 05:43:02;;;;;;;4.82;1.90;;;;;;;;;;5030454;28;20025;-64
2021/06/15 05:46:06;;;;;;;13.38;3.63;;;;;;;;;;5031874;28;20382;-64
2021/06/15 05:49:11;;;;;;;9.02;4.55;;;;;;;;;;5032630;28;20033;-65
2021/06/15 05:52:16;;;;;;;8.32;3.22;;;;;;;;;;5031974;28;20045;-63
2021/06/15 05:55:20;;;;;;;7.32;2.95;;;;;;;;;;5032218;28;20033;-63
2021/06/15 05:58:25;;;;;;;3.83;2.28;;;;;;;;;;5031870;28;20033;-65
2021/06/15 06:01:29;;;;;;;4.80;2.00;;;;;;;;;;5031343;28;20033;-64
2021/06/15 06:08:04;;;;;;;6.90;2.13;;;;;;;;;;5042277;28;20038;-63
2021/06/15 06:08:07;;;;;;;6.28;2.10;;;;;;;;;;5035034;28;20548;-62
2021/06/15 06:11:12;;;;;;;8.88;2.35;;;;;;;;;;5031046;28;20041;-64
2021/06/15 06:14:16;;;;;;;10.75;2.15;;;;;;;;;;5030958;28;20033;-64
2021/06/15 06:17:20;;;;;;;10.55;2.38;;;;;;;;;;5030805;28;20044;-65
2021/06/15 06:20:25;;;;;;;7.45;2.40;;;;;;;;;;5031417;28;20068;-65
2021/06/15 06:23:29;;;;;;;6.03;2.00;;;;;;;;;;5031565;28;20045;-63
2021/06/15 06:26:33;;;;;;;10.13;2.20;;;;;;;;;;5031739;28;20037;-64
2021/06/15 06:29:38;;;;;;;6.97;1.98;;;;;;;;;;5031107;28;20049;-63
2021/06/15 06:32:43;;;;;;;10.60;2.05;;;;;;;;;;5031227;28;20041;-64
2021/06/15 06:35:47;;;;;;;10.98;2.35;;;;;;;;;;5031070;28;20370;-63
2021/06/15 06:38:52;;;;;;;9.18;2.33;;;;;;;;;;5030876;28;20049;-62
2021/06/15 06:41:57;;;;;;;11.10;2.33;;;;;;;;;;5031533;28;20370;-64
2021/06/15 06:45:01;;;;;;;17.42;2.95;;;;;;;;;;5041776;28;20474;-62
2021/06/15 06:48:08;;;;;;;7.57;2.42;;;;;;;;;;5032096;28;20033;-64
2021/06/15 06:51:12;;;;;;;11.13;2.40;;;;;;;;;;5034547;28;20045;-65
2021/06/15 06:54:16;;;;;;;5.57;2.35;;;;;;;;;;5023041;28;20510;-64
2021/06/15 06:57:20;;;;;;;8.13;1.92;;;;;;;;;;5035335;28;20136;-62
2021/06/15 07:00:25;;;;;;;6.68;2.05;;;;;;;;;;5034577;28;20508;-63
2021/06/15 07:03:30;;;;;;;11.05;2.72;;;;;;;;;;5034872;28;20041;-62
2021/06/15 07:06:34;;;;;;;5.40;2.22;;;;;;;;;;5035059;28;20511;-63
2021/06/15 07:09:38;;;;;;;12.20;2.15;;;;;;;;;;5034368;28;20045;-64
2021/06/15 07:12:43;;;;;;;8.30;2.00;;;;;;;;;;5034892;28;20518;-65
2021/06/15 07:15:47;;;;;;;8.98;2.08;;;;;;;;;;5034999;28;20477;-64
2021/06/15 07:18:55;;;;;;;10.18;2.95;;;;;;;;;;5035108;28;20053;-62
2021/06/15 07:21:59;;;;;;;10.48;2.47;;;;;;;;;;5034695;28;20041;-63
2021/06/15 07:25:05;;;;;;;9.70;2.50;;;;;;;;;;5035394;28;20048;-62
2021/06/15 07:28:09;;;;;;;6.85;2.70;;;;;;;;;;5022884;28;20465;-62
2021/06/15 07:31:13;;;;;;;6.45;2.85;;;;;;;;;;5022007;28;20041;-60
2021/06/15 07:34:18;;;;;;;5.65;1.85;;;;;;;;;;5033715;28;20033;-60
2021/06/15 07:37:22;;;;;;;11.10;2.28;;;;;;;;;;5033619;28;20041;-60
2021/06/15 07:40:27;;;;;;;5.05;2.17;;;;;;;;;;5033942;28;20052;-59
2021/06/15 07:43:32;;;;;;;4.25;2.40;;;;;;;;;;5033583;28;20042;-60
2021/06/15 07:46:36;;;;;;;8.55;2.47;;;;;;;;;;5033741;28;20473;-62
2021/06/15 07:49:41;;;;;;;7.30;2.42;;;;;;;;;;5033553;28;20033;-60
2021/06/15 07:52:45;;;;;;;7.43;2.58;;;;;;;;;;5033600;28;20064;-61
2021/06/15 07:55:50;;;;;;;12.40;2.92;;;;;;;;;;5033614;28;20049;-59
2021/06/15 07:58:54;;;;;;;6.65;2.17;;;;;;;;;;5033639;28;20059;-61
2021/06/15 08:02:02;;;;;;;5.47;2.70;;;;;;;;;;5033436;28;20045;-60
2021/06/15 08:05:06;;;;;;;5.80;2.70;;;;;;;;;;5044219;28;20053;-62
2021/06/15 08:08:11;;;;;;;7.97;2.65;;;;;;;;;;5033306;28;20038;-60
2021/06/15 08:11:16;;;;;;;9.90;2.63;;;;;;;;;;5033209;28;20041;-60
2021/06/15 08:14:20;;;;;;;6.43;2.40;;;;;;;;;;5033117;28;20792;-62
2021/06/15 08:17:24;;;;;;;4.00;1.90;;;;;;;;;;5033066;28;20041;-62
2021/06/15 08:20:28;;;;;;;8.68;2.42;;;;;;;;;;5043850;28;20426;-60
2021/06/15 08:23:33;;;;;;;12.32;2.28;;;;;;;;;;5021338;28;20034;-60
2021/06/15 08:26:40;;;;;;;6.57;2.40;;;;;;;;;;5033231;28;20038;-60
2021/06/15 08:29:44;;;;;;;7.47;2.33;;;;;;;;;;5033288;28;20485;-61
2021/06/15 08:32:49;;;;;;;5.78;2.28;;;;;;;;;;5033228;28;20049;-60
2021/06/15 08:35:54;;;;;;;7.25;2.60;;;;;;;;;;5033073;28;20366;-61
2021/06/15 08:39:02;;;;;;;5.00;2.40;;;;;;;;;;5032622;28;20045;-61
2021/06/15 08:42:07;;;;;;;4.70;1.98;;;;;;;;;;5043413;28;20037;-60
2021/06/15 08:45:16;;;;;;;5.80;2.08;;;;;;;;;;5032712;28;20034;-60
2021/06/15 08:48:21;;;;;;;4.78;2.10;;;;;;;;;;5032456;28;20037;-61
2021/06/15 08:51:25;;;;;;;4.25;2.65;;;;;;;;;;5032510;28;20398;-61
2021/06/15 08:54:30;;;;;;;5.88;2.40;;;;;;;;;;5032727;28;20046;-61
2021/06/15 08:57:35;;;;;;;6.60;2.00;;;;;;;;;;5020412;28;20446;-61
2021/06/15 09:00:40;;;;;;;12.20;2.33;;;;;;;;;;5032577;28;20378;-62
2021/06/15 09:03:44;;;;;;;5.60;2.55;;;;;;;;;;5020032;28;20037;-61
2021/06/15 09:06:49;;;;;;;6.93;2.25;;;;;;;;;;5031015;28;20041;-61
2021/06/15 09:09:53;;;;;;;7.75;2.53;;;;;;;;;;5031744;28;20037;-59
2021/06/15 09:12:58;;;;;;;7.68;2.45;;;;;;;;;;5031436;28;20505;-60
2021/06/15 09:16:24;;;;;;;5.43;2.40;;;;;;;;;;5032156;28;20057;-61
2021/06/15 09:19:28;;;;;;;8.05;2.40;;;;;;;;;;5031761;28;20386;-60
2021/06/15 09:22:34;;;;;;;5.78;2.20;;;;;;;;;;5019735;28;20041;-61
2021/06/15 09:25:38;;;;;;;7.28;2.85;;;;;;;;;;5031958;28;20041;-61
2021/06/15 09:28:50;;;;;;;3.65;2.22;;;;;;;;;;5032147;28;20041;-59
2021/06/15 09:31:55;;;;;;;8.30;2.30;;;;;;;;;;5032032;28;20037;-62
2021/06/15 09:35:01;;;;;;;8.13;2.40;;;;;;;;;;5032035;28;20041;-63
2021/06/15 09:38:06;;;;;;;6.53;2.17;;;;;;;;;;5031412;28;20374;-63
2021/06/15 09:41:30;;;;;;;8.75;2.33;;;;;;;;;;5031990;28;20045;-64
2021/06/15 09:44:34;;;;;;;4.70;2.40;;;;;;;;;;5032133;28;20030;-65
2021/06/15 09:47:39;;;;;;;4.20;2.38;;;;;;;;;;5032168;28;20485;-64
2021/06/15 09:50:43;;;;;;;6.78;2.15;;;;;;;;;;5031503;28;20042;-64
2021/06/15 09:53:53;;;;;;;7.55;2.22;;;;;;;;;;5042375;28;20045;-63
2021/06/15 09:56:58;;;;;;;13.52;2.47;;;;;;;;;;5031127;28;20034;-63
2021/06/15 10:00:03;;;;;;;13.50;2.47;;;;;;;;;;5042274;28;20044;-65
2021/06/15 10:03:16;;;;;;;9.82;2.42;;;;;;;;;;5031564;28;20040;-63
2021/06/15 10:06:33;;;;;;;5.88;2.63;;;;;;;;;;5031549;28;20049;-62
2021/06/15 10:09:37;;;;;;;6.55;3.60;;;;;;;;;;5030885;28;20034;-62
2021/06/15 10:12:42;;;;;;;5.28;2.22;;;;;;;;;;5030920;28;20049;-62
2021/06/15 10:15:49;;;;;;;7.60;2.35;;;;;;;;;;5018752;28;20041;-64
2021/06/15 10:18:53;;;;;;;11.50;2.47;;;;;;;;;;5030969;28;20029;-64
2021/06/15 10:21:58;;;;;;;4.15;2.72;;;;;;;;;;5031200;28;20049;-63
2021/06/15 10:25:04;;;;;;;5.25;2.38;;;;;;;;;;5034154;28;20041;-64
2021/06/15 10:28:12;;;;;;;5.03;2.55;;;;;;;;;;5035230;28;20041;-62
2021/06/15 10:31:16;;;;;;;3.28;2.28;;;;;;;;;;5035475;28;20045;-65
2021/06/15 10:34:47;;;;;;;7.03;2.20;;;;;;;;;;5035012;28;20041;-62
2021/06/15 10:37:52;;;;;;;4.93;2.30;;;;;;;;;;5027981;28;20030;-65
2021/06/15 10:40:59;;;;;;;9.05;2.10;;;;;;;;;;5035692;28;20046;-64
2021/06/15 10:44:13;;;;;;;7.63;2.50;;;;;;;;;;5035147;28;20477;-62
2021/06/15 10:47:17;;;;;;;6.25;2.30;;;;;;;;;;5034745;28;20037;-63
2021/06/15 10:50:35;;;;;;;3.80;1.85;;;;;;;;;;5035839;28;20033;-64
2021/06/15 10:53:42;;;;;;;4.95;2.00;;;;;;;;;;5023576;28;20041;-63
2021/06/15 10:57:07;;;;;;;4.60;2.13;;;;;;;;;;5034081;28;20477;-64
2021/06/15 11:00:13;;;;;;;2.72;1.85;;;;;;;;;;5036085;28;20045;-63
2021/06/15 11:03:24;;;;;;;5.15;2.25;;;;;;;;;;5035314;28;20037;-65
2021/06/15 11:06:28;;;;;;;5.30;1.80;;;;;;;;;;5033050;28;20057;-64
2021/06/15 11:09:33;;;;;;;5.05;2.03;;;;;;;;;;5034408;28;20080;-63
2021/06/15 11:12:48;;;;;;;3.65;2.05;;;;;;;;;;5044798;28;20313;-64
2021/06/15 11:15:56;;;;;;;6.22;2.33;;;;;;;;;;5034926;28;20045;-63
2021/06/15 11:19:10;;;;;;;3.45;1.73;;;;;;;;;;5034505;28;20041;-62
2021/06/15 11:22:20;;;;;;;4.80;2.10;;;;;;;;;;5034604;28;20050;-63
2021/06/15 11:25:43;;;;;;;6.05;2.03;;;;;;;;;;5034247;28;20045;-63
2021/06/15 11:28:48;;;;;;;5.32;1.80;;;;;;;;;;5045224;28;20037;-63
2021/06/15 11:31:53;;;;;;;4.10;1.90;;;;;;;;;;5033972;28;20033;-62
2021/06/15 11:35:02;;;;;;;35.97;4.00;;;;;;;;;;5032897;28;20041;-63
2021/06/15 11:38:13;;;;;;;5.18;2.15;;;;;;;;;;5022310;28;20406;-65
2021/06/15 11:41:18;;;;;;;5.53;1.52;;;;;;;;;;5034640;28;20053;-62
2021/06/15 11:44:42;;;;;;;2.63;1.42;;;;;;;;;;5034864;28;20037;-63
2021/06/15 11:47:56;;;;;;;3.45;1.58;;;;;;;;;;5044059;28;20045;-63
2021/06/15 11:51:02;;;;;;;2.47;1.45;;;;;;;;;;5034046;28;20038;-64
2021/06/15 11:54:06;;;;;;;4.38;1.80;;;;;;;;;;5034519;28;20297;-65
2021/06/15 11:57:11;;;;;;;9.82;2.03;;;;;;;;;;5034285;28;20037;-59
2021/06/15 12:00:19;;;;;;;5.78;1.63;;;;;;;;;;5021160;28;20049;-60
2021/06/15 12:03:24;;;;;;;5.93;1.90;;;;;;;;;;5033427;28;20029;-60
2021/06/15 12:06:29;;;;;;;7.35;1.92;;;;;;;;;;5032734;28;20045;-60
2021/06/15 12:09:33;;;;;;;3.55;1.70;;;;;;;;;;5032496;28;20041;-59
2021/06/15 12:12:53;;;;;;;4.32;1.75;;;;;;;;;;5033206;28;20057;-61
2021/06/15 12:16:31;;;;;;;2.72;1.30;;;;;;;;;;5043735;28;20041;-62
2021/06/15 12:19:38;;;;;;;4.35;2.10;;;;;;;;;;5032948;28;20493;-60
2021/06/15 12:22:42;;;;;;;3.30;1.80;;;;;;;;;;5033237;28;20033;-61
2021/06/15 12:25:47;;;;;;;5.38;2.13;;;;;;;;;;5043700;28;20045;-60
2021/06/15 12:28:56;;;;;;;3.10;1.27;;;;;;;;;;5032988;28;20053;-61
2021/06/15 12:32:01;;;;;;;4.60;1.10;;;;;;;;;;5032817;28;20038;-61
2021/06/15 12:35:25;;;;;;;5.10;1.90;;;;;;;;;;5032892;28;20033;-59
2021/06/15 12:38:29;;;;;;;5.80;1.60;;;;;;;;;;5032840;28;20038;-62
2021/06/15 12:41:34;;;;;;;3.08;1.45;;;;;;;;;;5032412;28;20045;-58
2021/06/15 12:44:40;;;;;;;3.33;1.50;;;;;;;;;;5032881;28;20033;-61
2021/06/15 12:47:46;;;;;;;4.40;1.23;;;;;;;;;;5042048;28;20045;-60
2021/06/15 12:51:09;;;;;;;1.92;1.00;;;;;;;;;;5032575;28;20030;-60
2021/06/15 12:54:19;;;;;;;3.20;1.60;;;;;;;;;;5043470;28;20041;-61
2021/06/15 12:57:23;;;;;;;8.27;1.52;;;;;;;;;;5032424;28;20041;-60
2021/06/15 13:00:31;;;;;;;3.85;1.25;;;;;;;;;;5032122;28;20053;-61
2021/06/15 13:03:38;;;;;;;7.38;1.23;;;;;;;;;;5032088;28;20033;-60
2021/06/15 13:06:43;;;;;;;2.65;1.33;;;;;;;;;;5032284;28;20041;-60
2021/06/15 13:09:47;;;;;;;5.88;1.38;;;;;;;;;;5031970;28;20041;-60
2021/06/15 13:12:53;;;;;;;2.17;1.20;;;;;;;;;;5032038;28;20050;-58
2021/06/15 13:16:11;;;;;;;2.92;1.40;;;;;;;;;;5032140;28;20034;-60
2021/06/15 13:19:19;;;;;;;3.78;1.00;;;;;;;;;;5031903;28;20037;-59
2021/06/15 13:22:28;;;;;;;2.95;1.25;;;;;;;;;;5032173;28;20049;-61
2021/06/15 13:25:33;;;;;;;2.88;1.33;;;;;;;;;;5031855;28;20045;-60
2021/06/15 13:28:38;;;;;;;4.50;1.23;;;;;;;;;;5042714;28;20045;-62
2021/06/15 13:31:44;;;;;;;3.80;1.40;;;;;;;;;;5031985;28;20033;-62
2021/06/15 13:42:03;;;;;;;3.08;1.33;;;;;;;;;;4779090;29;20290;-59
2021/06/15 13:45:09;;;;;;;2.35;1.35;;;;;;;;;;4915474;29;20095;-60
2021/06/15 13:48:14;;;;;;;5.63;1.73;;;;;;;;;;4915445;29;20040;-61
2021/06/15 13:51:19;;;;;;;3.95;1.20;;;;;;;;;;4915315;29;20044;-61
2021/06/15 13:54:23;;;;;;;2.22;1.20;;;;;;;;;;4915381;29;20044;-61
2021/06/15 13:57:27;;;;;;;2.38;1.15;;;;;;;;;;4915325;29;20048;-61
2021/06/15 14:00:32;;;;;;;4.68;1.33;;;;;;;;;;4914916;29;20056;-61
2021/06/15 14:03:36;;;;;;;7.32;1.40;;;;;;;;;;4914817;29;20044;-61
2021/06/15 14:06:44;;;;;;;6.07;1.98;;;;;;;;;;4915568;29;20055;-60
2021/06/15 14:09:49;;;;;;;7.47;2.40;;;;;;;;;;4903268;29;20182;-61
2021/06/15 14:12:57;;;;;;;5.80;2.72;;;;;;;;;;4915019;29;20377;-61
2021/06/15 14:16:01;;;;;;;7.85;2.65;;;;;;;;;;4914934;29;20484;-60
2021/06/15 14:19:05;;;;;;;7.55;2.55;;;;;;;;;;4915428;29;20047;-60
2021/06/15 14:22:12;;;;;;;7.32;2.47;;;;;;;;;;4915225;29;20373;-61
2021/06/15 14:25:18;;;;;;;11.07;2.85;;;;;;;;;;4915176;29;20040;-62
2021/06/15 14:28:25;;;;;;;11.40;2.40;;;;;;;;;;4915022;29;20039;-60
2021/06/15 14:31:29;;;;;;;7.30;3.00;;;;;;;;;;4915249;29;20055;-61
2021/06/15 14:34:34;;;;;;;14.40;2.53;;;;;;;;;;4914701;29;20029;-60
2021/06/15 14:37:38;;;;;;;10.38;2.75;;;;;;;;;;4914744;29;20047;-61
2021/06/15 14:40:43;;;;;;;35.47;3.08;;;;;;;;;;4902349;29;20221;-61
2021/06/15 14:43:47;;;;;;;7.50;2.60;;;;;;;;;;4914355;29;20045;-64
2021/06/15 14:46:52;;;;;;;10.30;2.97;;;;;;;;;;4914523;29;20044;-61
2021/06/15 14:49:57;;;;;;;10.15;3.08;;;;;;;;;;4914233;29;20066;-61
2021/06/15 14:53:02;;;;;;;11.13;3.13;;;;;;;;;;4902315;29;20029;-62
2021/06/15 14:56:06;;;;;;;15.38;3.25;;;;;;;;;;4915038;29;20039;-61
2021/06/15 14:59:11;;;;;;;8.43;3.28;;;;;;;;;;4914213;29;20246;-61
2021/06/15 15:02:15;;;;;;;5.70;2.70;;;;;;;;;;4914531;29;20044;-62
2021/06/15 15:05:19;;;;;;;7.68;2.55;;;;;;;;;;4914058;29;20040;-60
2021/06/15 15:08:23;;;;;;;3.38;2.30;;;;;;;;;;4914300;29;20044;-60
2021/06/15 15:11:28;;;;;;;7.47;3.47;;;;;;;;;;4915834;29;20044;-60
2021/06/15 15:14:33;;;;;;;5.93;2.80;;;;;;;;;;4917959;29;20040;-61
2021/06/15 15:17:43;;;;;;;5.13;2.17;;;;;;;;;;4917907;29;20044;-62
2021/06/15 15:20:48;;;;;;;8.93;2.80;;;;;;;;;;4917102;29;20052;-62
2021/06/15 15:23:55;;;;;;;6.82;2.85;;;;;;;;;;4917791;29;20040;-61
2021/06/15 15:26:59;;;;;;;9.25;3.45;;;;;;;;;;4917942;29;20043;-62
2021/06/15 15:30:16;;;;;;;10.48;2.95;;;;;;;;;;4917268;29;20036;-63
2021/06/15 15:33:20;;;;;;;12.52;3.20;;;;;;;;;;4917421;29;20047;-63
2021/06/15 15:36:25;;;;;;;5.97;2.60;;;;;;;;;;4917162;29;20209;-60
2021/06/15 15:39:29;;;;;;;8.38;2.97;;;;;;;;;;4917524;29;20044;-61
2021/06/15 15:42:35;;;;;;;7.22;2.72;;;;;;;;;;4917233;29;20052;-60
2021/06/15 15:45:40;;;;;;;7.95;3.20;;;;;;;;;;4918859;29;20048;-61
2021/06/15 15:48:45;;;;;;;9.80;3.05;;;;;;;;;;4917109;29;20040;-62
2021/06/15 15:51:50;;;;;;;7.40;2.67;;;;;;;;;;4916983;29;20036;-62
2021/06/15 15:54:54;;;;;;;6.35;2.40;;;;;;;;;;4916871;29;20044;-62
2021/06/15 15:57:58;;;;;;;4.65;2.38;;;;;;;;;;4917236;29;20040;-62
2021/06/15 16:01:03;;;;;;;7.18;2.80;;;;;;;;;;4917012;29;20048;-62
2021/06/15 16:04:08;;;;;;;5.80;2.33;;;;;;;;;;4917005;29;20044;-61
2021/06/15 16:07:12;;;;;;;14.50;2.97;;;;;;;;;;4916632;29;20457;-60
2021/06/15 16:10:17;;;;;;;6.70;2.10;;;;;;;;;;4917852;29;20392;-61
2021/06/15 16:13:22;;;;;;;3.58;2.50;;;;;;;;;;4916689;29;20044;-60
2021/06/15 16:16:26;;;;;;;7.85;2.70;;;;;;;;;;4916853;29;20044;-60
2021/06/15 16:19:31;;;;;;;9.55;2.80;;;;;;;;;;4916487;29;20378;-60
2021/06/15 16:22:36;;;;;;;9.77;2.83;;;;;;;;;;4916234;29;20048;-63
2021/06/15 16:25:42;;;;;;;9.90;3.28;;;;;;;;;;4916829;29;20051;-61
2021/06/15 16:28:50;;;;;;;7.00;3.30;;;;;;;;;;4916679;29;20040;-62
2021/06/15 16:31:57;;;;;;;11.98;3.70;;;;;;;;;;4893679;29;20464;-62
2021/06/15 16:35:03;;;;;;;5.93;2.72;;;;;;;;;;4916514;29;20055;-60
2021/06/15 16:38:11;;;;;;;4.00;2.65;;;;;;;;;;4916641;29;20047;-65
2021/06/15 16:41:16;;;;;;;7.00;2.90;;;;;;;;;;4903918;29;20060;-61
2021/06/15 16:44:20;;;;;;;3.72;2.58;;;;;;;;;;4916095;29;20032;-61
2021/06/15 16:47:24;;;;;;;5.88;2.97;;;;;;;;;;4916061;29;20040;-62
2021/06/15 16:50:29;;;;;;;4.50;3.20;;;;;;;;;;4915879;29;20040;-61
2021/06/15 16:53:33;;;;;;;5.10;2.90;;;;;;;;;;4915594;29;20044;-61
2021/06/15 16:56:38;;;;;;;8.15;3.25;;;;;;;;;;4915587;29;20032;-62
2021/06/15 16:59:43;;;;;;;9.52;3.50;;;;;;;;;;4916742;29;20060;-62
2021/06/15 17:02:50;;;;;;;17.13;3.90;;;;;;;;;;4915980;29;20040;-61
2021/06/15 17:05:55;;;;;;;12.73;3.95;;;;;;;;;;4903783;29;20036;-61
2021/06/15 17:08:59;;;;;;;12.25;4.60;;;;;;;;;;4915497;29;20037;-61
2021/06/15 17:12:08;;;;;;;21.45;5.18;;;;;;;;;;4915198;29;20032;-61
2021/06/15 17:15:13;;;;;;;12.50;5.00;;;;;;;;;;4915187;29;20051;-61
2021/06/15 17:18:18;;;;;;;18.92;5.10;;;;;;;;;;4914723;29;20118;-61
2021/06/15 17:21:24;;;;;;;15.05;5.20;;;;;;;;;;4914967;29;20408;-61
2021/06/15 17:24:29;;;;;;;12.27;5.03;;;;;;;;;;4915465;29;20043;-62
2021/06/15 17:27:35;;;;;;;18.65;4.82;;;;;;;;;;4915710;29;20064;-61
2021/06/15 17:30:40;;;;;;;8.02;4.00;;;;;;;;;;4915228;29;20040;-61
2021/06/15 17:33:44;;;;;;;14.25;3.70;;;;;;;;;;4914482;29;20461;-62
2021/06/15 17:36:48;;;;;;;10.00;3.78;;;;;;;;;;4914811;29;20092;-61
2021/06/15 17:39:53;;;;;;;13.75;4.32;;;;;;;;;;4914817;29;20110;-61
2021/06/15 17:42:57;;;;;;;15.35;4.70;;;;;;;;;;4915278;29;20059;-68
2021/06/15 17:46:02;;;;;;;10.93;3.95;;;;;;;;;;4915319;29;20468;-66
2021/06/15 17:49:06;;;;;;;13.40;3.63;;;;;;;;;;4915390;29;20052;-67
2021/06/15 17:52:11;;;;;;;14.38;4.70;;;;;;;;;;4916260;29;20055;-67
2021/06/15 17:55:20;;;;;;;9.20;3.53;;;;;;;;;;4903725;29;20051;-67
2021/06/15 17:58:25;;;;;;;9.52;3.45;;;;;;;;;;4915341;29;20044;-67
2021/06/15 18:01:29;;;;;;;11.52;4.15;;;;;;;;;;4914544;29;20052;-67
2021/06/15 18:04:54;;;;;;;7.43;3.20;;;;;;;;;;4915177;29;20473;-67
2021/06/15 18:07:59;;;;;;;14.45;4.40;;;;;;;;;;4915450;29;20043;-68
2021/06/15 18:11:04;;;;;;;10.43;3.50;;;;;;;;;;4915129;29;20502;-68
2021/06/15 18:14:08;;;;;;;13.93;3.70;;;;;;;;;;4914569;29;20480;-68
2021/06/15 18:17:14;;;;;;;14.52;3.92;;;;;;;;;;4915616;29;20044;-66
2021/06/15 18:20:18;;;;;;;11.15;3.80;;;;;;;;;;4902148;29;20052;-66
2021/06/15 18:23:23;;;;;;;12.13;3.28;;;;;;;;;;4914509;29;20044;-72
2021/06/15 18:26:28;;;;;;;20.30;4.95;;;;;;;;;;4915123;29;20043;-66
2021/06/15 18:29:32;;;;;;;14.60;4.18;;;;;;;;;;4915310;29;20053;-67
2021/06/15 18:32:36;;;;;;;19.75;4.40;;;;;;;;;;4914561;29;20056;-67
2021/06/15 18:35:41;;;;;;;8.73;4.18;;;;;;;;;;4903193;29;20077;-68
2021/06/15 18:38:45;;;;;;;8.43;3.83;;;;;;;;;;4914556;29;20048;-65
2021/06/15 18:41:51;;;;;;;12.00;3.42;;;;;;;;;;4914544;29;20052;-66
2021/06/15 18:44:55;;;;;;;10.10;3.65;;;;;;;;;;4914906;29;20158;-67
2021/06/15 18:48:00;;;;;;;7.55;3.78;;;;;;;;;;4918194;29;20055;-66